createdAt,value
2018-04-13T20:39:55.221Z,12.75
2018-04-13T20:42:23.340Z,12.70
2018-04-13T20:44:51.447Z,12.62
2018-04-13T20:47:19.847Z,12.54
2018-04-13T20:49:48.184Z,12.49
2018-04-13T20:52:16.319Z,12.45
2018-04-13T20:54:44.468Z,12.41
2018-04-13T20:57:12.591Z,12.35
2018-04-13T20:59:40.785Z,12.29
2018-04-13T21:02:08.923Z,12.25
2018-04-13T21:04:37.095Z,12.21
2018-04-13T21:07:05.281Z,12.18
2018-04-13T21:09:33.394Z,12.15
2018-04-13T21:12:01.533Z,12.10
2018-04-13T21:14:29.670Z,12.05
2018-04-13T21:16:57.813Z,12.00
2018-04-13T21:19:25.937Z,11.89
2018-04-13T21:21:54.065Z,11.83
2018-04-13T21:24:22.206Z,11.76
2018-04-13T21:26:50.334Z,11.72
2018-04-13T21:29:18.429Z,11.68
2018-04-13T21:31:46.580Z,11.63
2018-04-13T21:34:14.751Z,11.55
2018-04-13T21:36:42.847Z,11.47
2018-04-13T21:39:11.016Z,11.42
2018-04-13T21:41:39.122Z,11.38
2018-04-13T21:44:07.267Z,11.35
2018-04-13T21:46:35.404Z,11.33
2018-04-13T21:49:03.521Z,11.33
2018-04-13T21:51:31.650Z,11.32
2018-04-13T21:53:59.774Z,11.28
2018-04-13T21:56:27.994Z,11.27
2018-04-13T21:58:56.638Z,11.25
2018-04-13T22:01:24.774Z,11.22
2018-04-13T22:03:52.875Z,11.21
2018-04-13T22:06:21.076Z,11.18
2018-04-13T22:08:49.311Z,11.12
2018-04-13T22:11:17.413Z,11.07
2018-04-13T22:13:46.454Z,11.04
2018-04-13T22:16:14.575Z,11.00
2018-04-13T22:18:42.707Z,10.93
2018-04-13T22:21:10.827Z,10.86
2018-04-13T22:23:38.955Z,10.75
2018-04-13T22:26:07.105Z,10.67
2018-04-13T22:28:35.245Z,10.62
2018-04-13T22:31:03.588Z,10.57
2018-04-13T22:33:31.700Z,10.55
2018-04-13T22:35:59.824Z,10.48
2018-04-13T22:38:27.979Z,10.43
2018-04-13T22:40:56.131Z,10.38
2018-04-13T22:43:24.244Z,10.34
2018-04-13T22:45:52.365Z,10.29
2018-04-13T22:48:20.626Z,10.24
2018-04-13T22:50:48.737Z,10.22
2018-04-13T22:53:16.960Z,10.13
2018-04-13T22:55:45.061Z,10.02
2018-04-13T22:58:13.170Z,9.96
2018-04-13T23:00:41.343Z,9.92
2018-04-13T23:03:09.465Z,9.92
2018-04-13T23:05:37.551Z,9.92
2018-04-13T23:08:05.697Z,9.89
2018-04-13T23:10:33.806Z,9.87
2018-04-13T23:13:01.908Z,9.84
2018-04-13T23:15:30.043Z,9.80
2018-04-13T23:17:58.159Z,9.77
2018-04-13T23:20:26.288Z,9.76
2018-04-13T23:22:54.434Z,9.73
2018-04-13T23:25:22.553Z,9.70
2018-04-13T23:27:50.655Z,9.67
2018-04-13T23:30:18.807Z,9.65
2018-04-13T23:32:46.913Z,9.62
2018-04-13T23:35:15.007Z,9.61
2018-04-13T23:37:43.145Z,9.59
2018-04-13T23:40:11.268Z,9.54
2018-04-13T23:42:39.458Z,9.51
2018-04-13T23:45:07.681Z,9.49
2018-04-13T23:47:35.775Z,9.44
2018-04-13T23:50:03.877Z,9.42
2018-04-13T23:52:32.042Z,9.37
2018-04-13T23:55:00.155Z,9.38
2018-04-13T23:57:28.270Z,9.38
2018-04-13T23:59:56.417Z,9.36
